Main page
METAR-TAF:

METAR-TAF

Airports :

Altenstadt Air Base

Altenstadt, Germany

latitude: 47-50N, longitude: 010-52E, elevation: 739 m

Current weather observation

The report was made 1 hour and 9 minutes ago, at 08:20 UTC
Wind 5 kt from the West
Temperature 23°C
Humidity 53%
Pressure 1018 hPa
Visibility 10 km or more
Few clouds at a height of 4000 ft

METAR: ETHA 170820Z 27005KT 9999 FEW040 23/13 Q1018 BLACKBLU+BLU+

Time: 11:29 (09:29 UTC)

Forecast

The report was made 56 minutes ago, at 08:33 UTC
Forecast valid from 17 at 08 UTC to 17 at 17 UTC
Wind 7 kt from the West
Visibility: 0920 m
Few clouds at a height of 4000 ft
Scattered clouds at a height of 32000 ft

TAF: ETHA 170833Z 1708/1717 27007KT 9999 NSW FEW040 SCT320 CANCEL 0920

Weather observations and forecasts of more than 4000 airports (METAR and TAF reports).

The available stations are represented by yellow and red dots on the map.

Hover mouse over dot to see the name of the station.

Then click to see weather observations and forecasts.

To change the map : click on the green buttons with a black cross to zoom in, on the green button with a dash to zoom out, or on the green arrows for adjacent maps.


METAR-TAF: